Log Lane Village, Colorado
Current Conditions -  °F | °C
As of 3:15 PM on Sunday 23 Nov 2014 (Local Time) from KFMM Reporting Station
Scattered Clouds Scattered Clouds  
Wind Chill: 31°   Ceiling: Unl
Heat Index: 40°   Visibility: 10mi
Dew Point: 10°   Wind: 22mph
Humidity: 29%   Direction: 350°N
Pressure: 29.79"   Gusts: 29mph
Location:  40.27°N, 103.83°W
Report Text: KFMM 232215Z AUTO 35019G25KT 10SM SCT075 SCT080 SCT120 05/M12 A2979 RMK AO2 T00471120
Loading
Personal Weather Stations






























Interactive Weather Map New forecast layout! Learn more

10-Day Weather Forecast

Advertisements
Track Severe Weather on mobile